createdAt,value
2022-08-03T00:02:19.512Z,18.50
2022-08-03T00:04:47.905Z,18.30
2022-08-03T00:07:16.275Z,18.30
2022-08-03T00:09:46.931Z,18.30
2022-08-03T00:12:15.384Z,18.20
2022-08-03T00:14:43.849Z,18.10
2022-08-03T00:17:15.019Z,18.00
2022-08-03T00:19:43.219Z,18.10
2022-08-03T00:22:11.427Z,18.20
2022-08-03T00:24:39.623Z,18.20
2022-08-03T00:27:09.562Z,18.20
2022-08-03T00:30:00.198Z,18.20
2022-08-03T00:32:26.105Z,18.20
2022-08-03T00:34:57.590Z,18.20
2022-08-03T00:37:40.770Z,18.10
2022-08-03T00:40:12.233Z,18.00
2022-08-03T00:42:53.630Z,18.10
2022-08-03T00:45:24.367Z,18.10
2022-08-03T00:47:53.396Z,18.00
2022-08-03T00:50:24.634Z,17.90
2022-08-03T00:52:54.956Z,17.90
2022-08-03T00:55:23.619Z,17.80
2022-08-03T00:57:53.763Z,17.90
2022-08-03T01:00:24.152Z,17.90
2022-08-03T01:02:54.615Z,18.00
2022-08-03T01:05:23.456Z,18.00
2022-08-03T01:08:03.119Z,18.00
2022-08-03T01:10:39.687Z,17.90
2022-08-03T01:14:01.734Z,17.80
2022-08-03T01:16:17.209Z,17.80
2022-08-03T01:18:50.661Z,17.80
2022-08-03T01:21:27.859Z,17.90
2022-08-03T01:24:05.869Z,17.90
2022-08-03T01:26:52.144Z,17.90
2022-08-03T01:29:44.506Z,17.90
2022-08-03T01:32:58.464Z,17.90
2022-08-03T01:35:10.111Z,17.80
2022-08-03T01:37:45.368Z,17.70
2022-08-03T01:40:17.620Z,17.70
2022-08-03T01:42:47.399Z,17.60
2022-08-03T01:45:19.674Z,17.60
2022-08-03T01:47:49.495Z,17.60
2022-08-03T01:50:22.271Z,17.50
2022-08-03T01:52:51.544Z,17.50
2022-08-03T01:55:21.412Z,17.50
2022-08-03T01:58:05.620Z,17.40
2022-08-03T02:00:37.863Z,17.40
2022-08-03T02:03:08.247Z,17.40
2022-08-03T02:05:37.632Z,17.50
2022-08-03T02:08:09.014Z,17.50
2022-08-03T02:10:38.899Z,17.50
2022-08-03T02:13:09.827Z,17.50
2022-08-03T02:15:40.174Z,17.60
2022-08-03T02:18:10.713Z,17.60
2022-08-03T02:20:40.814Z,17.60
2022-08-03T02:23:11.308Z,17.60
2022-08-03T02:25:45.311Z,17.80
2022-08-03T02:28:20.413Z,17.70
2022-08-03T02:30:54.931Z,17.60
2022-08-03T02:33:28.168Z,17.60
2022-08-03T02:35:59.252Z,17.70
2022-08-03T02:38:32.921Z,17.70
2022-08-03T02:41:02.825Z,17.70
2022-08-03T02:43:56.756Z,17.60
2022-08-03T02:46:33.791Z,17.70
2022-08-03T02:49:41.441Z,17.70
2022-08-03T02:51:54.456Z,17.70
2022-08-03T02:54:27.375Z,17.70
2022-08-03T02:56:58.626Z,17.80
2022-08-03T02:59:29.940Z,17.70
2022-08-03T03:02:01.412Z,17.70
2022-08-03T03:04:32.980Z,17.60
2022-08-03T03:07:03.717Z,17.50
2022-08-03T03:09:41.981Z,17.50
2022-08-03T03:12:14.347Z,17.50
2022-08-03T03:14:42.896Z,17.60
2022-08-03T03:17:16.195Z,17.50
2022-08-03T03:19:45.621Z,17.60
2022-08-03T03:22:16.159Z,17.60
2022-08-03T03:24:45.955Z,17.50
2022-08-03T03:27:16.663Z,17.50
2022-08-03T03:29:45.669Z,17.40
2022-08-03T03:32:15.731Z,17.40
2022-08-03T03:34:44.811Z,17.50
2022-08-03T03:37:13.011Z,17.50
2022-08-03T03:39:41.256Z,17.40
2022-08-03T03:42:09.695Z,17.40
2022-08-03T03:44:38.062Z,17.40
2022-08-03T03:47:06.495Z,17.30
2022-08-03T03:49:37.933Z,17.20
2022-08-03T03:52:06.951Z,17.20
2022-08-03T03:54:42.394Z,17.30
2022-08-03T03:57:12.912Z,17.30
2022-08-03T03:59:43.357Z,17.30
2022-08-03T04:02:12.888Z,17.30
2022-08-03T04:05:00.057Z,17.30
2022-08-03T04:07:46.734Z,17.30
2022-08-03T04:10:38.776Z,17.30
2022-08-03T04:13:11.084Z,17.30
2022-08-03T04:15:40.671Z,17.20
2022-08-03T04:18:12.010Z,17.10
2022-08-03T04:20:44.373Z,17.00
2022-08-03T04:23:21.141Z,17.00
2022-08-03T04:25:51.628Z,17.10
2022-08-03T04:28:30.793Z,17.10
2022-08-03T04:31:01.099Z,17.10
2022-08-03T04:33:32.529Z,17.10
2022-08-03T04:36:05.448Z,17.20
2022-08-03T04:38:38.201Z,17.20
2022-08-03T04:41:07.632Z,17.20
2022-08-03T04:43:36.584Z,17.30
2022-08-03T04:46:05.984Z,17.40
2022-08-03T04:48:35.341Z,17.50
2022-08-03T04:51:05.405Z,17.60
2022-08-03T04:53:33.635Z,17.70
2022-08-03T04:56:06.140Z,17.80
2022-08-03T04:58:35.286Z,17.90
2022-08-03T05:01:03.626Z,17.90
2022-08-03T05:03:32.674Z,18.00
2022-08-03T05:06:01.769Z,18.10
2022-08-03T05:08:46.270Z,18.20
2022-08-03T05:11:15.604Z,18.40
2022-08-03T05:13:44.051Z,18.50
2022-08-03T05:16:13.859Z,18.60
2022-08-03T05:18:42.662Z,18.70
2022-08-03T05:21:10.943Z,18.80
2022-08-03T05:23:41.430Z,18.90
2022-08-03T05:26:11.763Z,19.00
2022-08-03T05:28:40.189Z,19.10
2022-08-03T05:31:19.736Z,19.20
2022-08-03T05:33:49.033Z,19.40
2022-08-03T05:36:17.769Z,19.60
2022-08-03T05:38:47.382Z,19.70
2022-08-03T05:41:22.294Z,19.90
2022-08-03T05:43:54.115Z,20.00
2022-08-03T05:46:23.145Z,20.20
2022-08-03T05:48:51.761Z,20.30
2022-08-03T05:51:19.984Z,20.40
2022-08-03T05:53:49.656Z,20.60
2022-08-03T05:56:17.879Z,20.80
2022-08-03T05:58:48.063Z,20.80
2022-08-03T06:01:16.764Z,20.90
2022-08-03T06:03:45.386Z,21.00
2022-08-03T06:06:13.677Z,21.20
2022-08-03T06:08:42.463Z,21.40
2022-08-03T06:11:12.483Z,21.50
2022-08-03T06:13:41.033Z,21.70
2022-08-03T06:16:09.666Z,21.90
2022-08-03T06:18:38.683Z,22.00
2022-08-03T06:21:14.677Z,22.10
2022-08-03T06:23:53.237Z,22.30
2022-08-03T06:26:25.491Z,22.30
2022-08-03T06:28:54.939Z,22.40
2022-08-03T06:31:32.488Z,22.40
2022-08-03T06:34:32.990Z,22.30
2022-08-03T06:36:52.283Z,22.40
2022-08-03T06:39:23.670Z,22.50
2022-08-03T06:41:54.709Z,22.40
2022-08-03T06:44:22.983Z,22.30
2022-08-03T06:46:51.862Z,22.40
2022-08-03T06:49:23.089Z,22.50
2022-08-03T06:52:06.018Z,22.50
2022-08-03T06:54:36.776Z,22.60
2022-08-03T06:57:08.197Z,22.90
2022-08-03T07:00:09.848Z,23.10
2022-08-03T07:02:24.851Z,23.20
2022-08-03T07:04:56.571Z,23.10
2022-08-03T07:07:24.888Z,23.30
2022-08-03T07:09:57.194Z,23.30
2022-08-03T07:12:28.954Z,23.60
2022-08-03T07:15:01.201Z,23.70
2022-08-03T07:17:33.350Z,23.70
2022-08-03T07:20:03.759Z,23.70
2022-08-03T07:22:32.000Z,23.80
2022-08-03T07:25:00.471Z,23.80
2022-08-03T07:27:30.528Z,23.90
2022-08-03T07:29:59.761Z,24.10
2022-08-03T07:32:31.459Z,24.30
2022-08-03T07:35:01.104Z,24.50
2022-08-03T07:37:31.008Z,24.60
2022-08-03T07:39:59.872Z,24.80
2022-08-03T07:42:30.403Z,24.80
2022-08-03T07:44:58.974Z,24.90
2022-08-03T07:47:35.703Z,25.20
2022-08-03T07:50:06.348Z,25.30
2022-08-03T07:52:49.477Z,25.60
2022-08-03T07:55:19.025Z,25.50
2022-08-03T07:57:49.157Z,25.40
2022-08-03T08:00:19.983Z,25.40
2022-08-03T08:02:48.234Z,25.70
2022-08-03T08:05:16.503Z,25.90
2022-08-03T08:07:50.971Z,25.90
2022-08-03T08:10:20.412Z,25.90
2022-08-03T08:12:50.059Z,25.80
2022-08-03T08:15:18.576Z,26.00
2022-08-03T08:17:49.229Z,26.20
2022-08-03T08:20:27.706Z,26.60
2022-08-03T08:23:01.097Z,26.80
2022-08-03T08:25:30.349Z,26.60
2022-08-03T08:28:29.184Z,26.50
2022-08-03T08:30:51.129Z,26.50
2022-08-03T08:33:23.075Z,26.50
2022-08-03T08:35:53.328Z,26.50
2022-08-03T08:38:21.840Z,26.50
2022-08-03T08:40:50.760Z,26.70
2022-08-03T08:43:20.430Z,26.80
2022-08-03T08:45:50.882Z,27.20
2022-08-03T08:48:25.839Z,27.30
2022-08-03T08:50:55.596Z,27.00
2022-08-03T08:53:27.639Z,27.10
2022-08-03T08:56:00.891Z,27.10
2022-08-03T08:58:36.353Z,27.20
2022-08-03T09:01:04.771Z,27.50
2022-08-03T09:03:34.785Z,27.70
2022-08-03T09:06:03.781Z,27.60
2022-08-03T09:08:33.355Z,27.70
2022-08-03T09:11:01.824Z,27.80
2022-08-03T09:13:31.678Z,28.00
2022-08-03T09:16:14.438Z,28.00
2022-08-03T09:18:44.013Z,27.80
2022-08-03T09:21:35.498Z,28.00
2022-08-03T09:24:10.319Z,28.20
2022-08-03T09:26:53.959Z,28.30
2022-08-03T09:29:23.848Z,28.60
2022-08-03T09:32:02.698Z,28.70
2022-08-03T09:34:32.533Z,28.80
2022-08-03T09:37:00.967Z,28.80
2022-08-03T09:39:41.600Z,28.70
2022-08-03T09:42:14.913Z,28.80
2022-08-03T09:44:46.620Z,28.70
2022-08-03T09:47:16.621Z,28.80
2022-08-03T09:50:01.344Z,28.80
2022-08-03T09:52:39.352Z,28.80
2022-08-03T09:56:05.207Z,28.90
2022-08-03T09:58:10.468Z,29.20
2022-08-03T10:00:55.772Z,29.40
2022-08-03T10:03:24.904Z,29.60
2022-08-03T10:05:57.586Z,29.70
2022-08-03T10:08:27.689Z,30.00
2022-08-03T10:10:58.518Z,30.00
2022-08-03T10:13:26.802Z,29.90
2022-08-03T10:16:21.916Z,29.70
2022-08-03T10:18:44.624Z,30.00
2022-08-03T10:21:15.291Z,30.10
2022-08-03T10:23:43.795Z,30.40
2022-08-03T10:26:17.422Z,30.40
2022-08-03T10:28:51.019Z,30.50
2022-08-03T10:31:23.437Z,30.40
2022-08-03T10:33:54.706Z,30.50
2022-08-03T10:36:24.872Z,30.80
2022-08-03T10:38:54.192Z,30.90
2022-08-03T10:41:23.653Z,31.00
2022-08-03T10:43:57.633Z,31.10
2022-08-03T10:46:28.711Z,31.10
2022-08-03T10:48:57.592Z,31.10
2022-08-03T10:51:30.561Z,31.60
2022-08-03T10:53:59.197Z,32.00
2022-08-03T10:56:58.417Z,32.40
2022-08-03T11:00:00.541Z,32.90
2022-08-03T11:03:06.506Z,32.40
2022-08-03T11:05:41.166Z,32.40
2022-08-03T11:08:32.547Z,32.50
2022-08-03T11:11:03.568Z,33.00
2022-08-03T11:13:34.021Z,33.20
2022-08-03T11:16:07.167Z,33.30
2022-08-03T11:18:36.157Z,33.00
2022-08-03T11:21:06.563Z,32.90
2022-08-03T11:24:04.515Z,32.90
2022-08-03T11:26:35.129Z,33.10
2022-08-03T11:29:31.070Z,33.10
2022-08-03T11:31:59.413Z,33.40
2022-08-03T11:34:28.044Z,33.80
2022-08-03T11:37:25.349Z,33.90
2022-08-03T11:39:59.334Z,34.30
2022-08-03T11:42:45.650Z,34.40
2022-08-03T11:45:14.997Z,34.30
2022-08-03T11:47:50.312Z,34.20
2022-08-03T11:50:21.415Z,34.50
2022-08-03T11:52:51.422Z,34.70
2022-08-03T11:55:22.064Z,35.00
2022-08-03T11:59:17.833Z,34.60
2022-08-03T12:00:40.445Z,34.60
2022-08-03T12:03:11.847Z,34.70
2022-08-03T12:05:51.086Z,34.30
2022-08-03T12:08:33.730Z,34.40
2022-08-03T12:11:05.681Z,34.60
2022-08-03T12:14:10.710Z,34.80
2022-08-03T12:16:30.852Z,35.60
2022-08-03T12:19:00.244Z,35.30
2022-08-03T12:21:30.231Z,35.40
2022-08-03T12:24:00.903Z,35.00
2022-08-03T12:26:30.466Z,34.70
2022-08-03T12:28:59.827Z,35.00
2022-08-03T12:31:28.026Z,35.40
2022-08-03T12:33:59.115Z,35.10
2022-08-03T12:36:28.752Z,35.60
2022-08-03T12:39:00.700Z,36.40
2022-08-03T12:41:31.112Z,35.80
2022-08-03T12:43:59.439Z,35.70
2022-08-03T12:46:32.795Z,36.00
2022-08-03T12:49:03.616Z,35.60
2022-08-03T12:51:33.792Z,35.30
2022-08-03T12:54:03.886Z,35.30
2022-08-03T12:56:32.246Z,35.40
2022-08-03T12:59:00.514Z,34.90
2022-08-03T13:01:37.299Z,35.00
2022-08-03T13:04:06.588Z,35.90
2022-08-03T13:06:34.870Z,35.90
2022-08-03T13:09:06.319Z,35.90
2022-08-03T13:11:57.720Z,36.00
2022-08-03T13:14:26.174Z,35.60
2022-08-03T13:16:54.404Z,35.60
2022-08-03T13:19:22.673Z,35.00
2022-08-03T13:22:01.836Z,34.90
2022-08-03T13:24:34.767Z,35.30
2022-08-03T13:28:11.075Z,35.10
2022-08-03T13:29:53.961Z,34.40
2022-08-03T13:32:22.999Z,33.80
2022-08-03T13:34:51.323Z,33.80
2022-08-03T13:37:19.543Z,34.80
2022-08-03T13:39:58.977Z,35.50
2022-08-03T13:42:30.487Z,36.10
2022-08-03T13:44:59.105Z,36.50
2022-08-03T13:47:27.525Z,37.00
2022-08-03T13:50:00.947Z,36.90
2022-08-03T13:52:31.962Z,36.90
2022-08-03T13:55:02.091Z,37.00
2022-08-03T13:58:03.563Z,36.50
2022-08-03T14:00:27.497Z,36.10
2022-08-03T14:03:12.572Z,36.50
2022-08-03T14:05:42.776Z,36.50
2022-08-03T14:08:11.614Z,36.60
2022-08-03T14:10:44.077Z,36.20
2022-08-03T14:13:12.677Z,36.10
2022-08-03T14:15:50.909Z,36.40
2022-08-03T14:18:29.190Z,37.30
2022-08-03T14:21:07.245Z,37.30
2022-08-03T14:23:37.559Z,37.50
2022-08-03T14:26:07.914Z,37.40
2022-08-03T14:28:36.766Z,36.70
2022-08-03T14:31:08.196Z,36.40
2022-08-03T14:33:43.617Z,35.60
2022-08-03T14:36:11.919Z,35.20
2022-08-03T14:38:40.159Z,35.70
2022-08-03T14:41:12.239Z,36.40
2022-08-03T14:44:01.106Z,36.50
2022-08-03T14:46:30.658Z,35.10
2022-08-03T14:50:31.913Z,34.80
2022-08-03T14:51:51.328Z,35.30
2022-08-03T14:54:22.630Z,35.40
2022-08-03T14:56:52.567Z,35.20
2022-08-03T14:59:20.820Z,34.30
2022-08-03T15:02:06.261Z,33.80
2022-08-03T15:04:37.726Z,33.80
2022-08-03T15:07:06.008Z,33.40
2022-08-03T15:09:34.383Z,33.00
2022-08-03T15:12:04.127Z,33.10
2022-08-03T15:14:33.407Z,33.60
2022-08-03T15:17:03.220Z,33.10
2022-08-03T15:20:00.426Z,32.70
2022-08-03T15:22:20.726Z,32.60
2022-08-03T15:24:53.849Z,33.00
2022-08-03T15:27:23.652Z,33.20
2022-08-03T15:30:07.087Z,32.70
2022-08-03T15:32:38.433Z,31.70
2022-08-03T15:35:07.334Z,30.70
2022-08-03T15:37:35.549Z,30.00
2022-08-03T15:40:03.961Z,29.80
2022-08-03T15:42:35.325Z,30.40
2022-08-03T15:45:03.583Z,30.90
2022-08-03T15:47:31.986Z,30.90
2022-08-03T15:50:00.254Z,30.80
2022-08-03T15:52:28.474Z,30.80
2022-08-03T15:54:56.744Z,30.80
2022-08-03T15:57:25.137Z,30.90
2022-08-03T15:59:54.759Z,31.00
2022-08-03T16:02:23.221Z,30.90
2022-08-03T16:04:52.235Z,30.90
2022-08-03T16:07:41.141Z,31.10
2022-08-03T16:10:30.667Z,31.10
2022-08-03T16:13:00.098Z,31.20
2022-08-03T16:15:29.945Z,31.00
2022-08-03T16:17:58.193Z,30.90
2022-08-03T16:20:34.493Z,30.60
2022-08-03T16:23:10.599Z,30.60
2022-08-03T16:25:40.526Z,30.50
2022-08-03T16:28:14.449Z,30.50
2022-08-03T16:30:46.782Z,30.50
2022-08-03T16:33:17.843Z,30.50
2022-08-03T16:35:46.880Z,30.60
2022-08-03T16:38:18.792Z,30.60
2022-08-03T16:40:51.580Z,30.50
2022-08-03T16:43:21.206Z,30.40
2022-08-03T16:45:51.404Z,30.40
2022-08-03T16:48:20.171Z,30.40
2022-08-03T16:50:50.098Z,30.30
2022-08-03T16:53:32.977Z,30.40
2022-08-03T16:56:05.559Z,30.60
2022-08-03T16:58:42.458Z,30.40
2022-08-03T17:01:22.020Z,30.00
2022-08-03T17:04:01.991Z,29.40
2022-08-03T17:06:35.192Z,29.00
2022-08-03T17:09:08.664Z,28.60
2022-08-03T17:11:43.973Z,28.30
2022-08-03T17:14:15.494Z,28.00
2022-08-03T17:16:52.617Z,27.90
2022-08-03T17:19:24.098Z,27.80
2022-08-03T17:22:00.738Z,27.70
2022-08-03T17:24:41.166Z,27.60
2022-08-03T17:28:41.380Z,27.50
2022-08-03T17:30:07.814Z,27.50
2022-08-03T17:32:42.505Z,27.40
2022-08-03T17:35:11.795Z,27.40
2022-08-03T17:37:58.190Z,27.30
2022-08-03T17:40:30.819Z,27.30
2022-08-03T17:43:00.303Z,27.20
2022-08-03T17:45:52.019Z,27.10
2022-08-03T17:48:18.514Z,27.00
2022-08-03T17:50:52.064Z,26.80
2022-08-03T17:53:25.230Z,26.70
2022-08-03T17:56:36.156Z,26.70
2022-08-03T17:59:08.276Z,26.70
2022-08-03T18:02:11.550Z,26.70
2022-08-03T18:04:57.237Z,26.60
2022-08-03T18:07:40.998Z,26.60
2022-08-03T18:10:11.426Z,26.50
2022-08-03T18:12:52.220Z,26.40
2022-08-03T18:15:27.568Z,26.30
2022-08-03T18:18:02.359Z,26.30
2022-08-03T18:20:41.181Z,26.20
2022-08-03T18:23:24.801Z,26.20
2022-08-03T18:26:01.323Z,26.10
2022-08-03T18:28:30.305Z,26.00
2022-08-03T18:30:58.859Z,25.90
2022-08-03T18:34:18.877Z,25.90
2022-08-03T18:36:21.801Z,25.80
2022-08-03T18:39:01.850Z,25.70
2022-08-03T18:41:34.352Z,25.70
2022-08-03T18:44:09.608Z,25.60
2022-08-03T18:47:06.989Z,25.60
2022-08-03T18:49:46.352Z,25.50
2022-08-03T18:52:26.980Z,25.40
2022-08-03T18:55:14.117Z,25.40
2022-08-03T18:57:51.453Z,25.30
2022-08-03T19:00:24.998Z,25.20
2022-08-03T19:03:12.480Z,25.10
2022-08-03T19:06:02.370Z,25.00
2022-08-03T19:08:42.844Z,24.80
2022-08-03T19:11:17.962Z,24.70
2022-08-03T19:13:56.555Z,24.60
2022-08-03T19:16:38.745Z,24.50
2022-08-03T19:19:11.093Z,24.40
2022-08-03T19:21:42.908Z,24.20
2022-08-03T19:24:14.926Z,24.10
2022-08-03T19:26:52.077Z,24.00
2022-08-03T19:29:24.345Z,23.90
2022-08-03T19:32:15.765Z,23.80
2022-08-03T19:34:46.633Z,23.80
2022-08-03T19:37:15.767Z,23.70
2022-08-03T19:39:45.577Z,23.60
2022-08-03T19:42:31.775Z,23.60
2022-08-03T19:45:13.939Z,23.40
2022-08-03T19:47:46.694Z,23.30
2022-08-03T19:50:15.650Z,23.20
2022-08-03T19:52:47.761Z,23.20
2022-08-03T19:55:18.825Z,23.10
2022-08-03T19:57:49.682Z,23.00
2022-08-03T20:00:26.658Z,22.90
2022-08-03T20:02:59.443Z,22.80
2022-08-03T20:05:28.053Z,22.70
2022-08-03T20:07:59.957Z,22.50
2022-08-03T20:10:30.375Z,22.50
2022-08-03T20:12:59.672Z,22.40
2022-08-03T20:15:31.245Z,22.40
2022-08-03T20:18:00.686Z,22.30
2022-08-03T20:20:31.848Z,22.20
2022-08-03T20:23:07.745Z,22.10
2022-08-03T20:25:57.043Z,22.00
2022-08-03T20:28:32.450Z,22.00
2022-08-03T20:31:01.869Z,21.80
2022-08-03T20:33:48.818Z,21.70
2022-08-03T20:36:18.552Z,21.60
2022-08-03T20:38:48.215Z,21.40
2022-08-03T20:41:18.396Z,21.30
2022-08-03T20:43:49.325Z,21.40
2022-08-03T20:46:30.039Z,21.30
2022-08-03T20:49:04.102Z,21.20
2022-08-03T20:51:50.183Z,21.20
2022-08-03T20:54:29.611Z,21.10
2022-08-03T20:57:03.670Z,21.00
2022-08-03T20:59:47.032Z,20.90
2022-08-03T21:02:19.812Z,21.00
2022-08-03T21:04:59.318Z,20.90
2022-08-03T21:08:03.900Z,20.70
2022-08-03T21:10:28.631Z,20.70
2022-08-03T21:13:16.149Z,20.60
2022-08-03T21:16:03.334Z,20.60
2022-08-03T21:18:41.073Z,20.70
2022-08-03T21:21:11.308Z,20.50
2022-08-03T21:23:49.090Z,20.30
2022-08-03T21:26:19.935Z,20.30
2022-08-03T21:28:50.818Z,20.30
2022-08-03T21:31:24.206Z,20.20
2022-08-03T21:33:55.636Z,20.10
2022-08-03T21:36:24.049Z,20.20
2022-08-03T21:38:55.857Z,20.10
2022-08-03T21:41:25.183Z,20.00
2022-08-03T21:43:55.105Z,20.00
2022-08-03T21:46:24.379Z,19.90
2022-08-03T21:48:56.823Z,20.00
2022-08-03T21:51:46.247Z,20.00
2022-08-03T21:54:14.973Z,19.80
2022-08-03T21:56:44.558Z,19.80
2022-08-03T21:59:18.271Z,19.80
2022-08-03T22:01:51.400Z,19.90
2022-08-03T22:04:55.008Z,19.90
2022-08-03T22:07:13.599Z,19.90
2022-08-03T22:09:50.158Z,19.80
2022-08-03T22:12:22.757Z,19.70
2022-08-03T22:15:01.204Z,19.70
2022-08-03T22:17:54.077Z,19.60
2022-08-03T22:20:21.697Z,19.70
2022-08-03T22:22:56.643Z,19.60
2022-08-03T22:25:30.702Z,19.60
2022-08-03T22:28:01.417Z,19.50
2022-08-03T22:30:31.653Z,19.50
2022-08-03T22:33:02.310Z,19.40
2022-08-03T22:35:47.264Z,19.40
2022-08-03T22:38:17.479Z,19.50
2022-08-03T22:40:48.731Z,19.40
2022-08-03T22:43:17.325Z,19.50
2022-08-03T22:46:10.063Z,19.50
2022-08-03T22:48:41.285Z,19.50
2022-08-03T22:51:10.583Z,19.50
2022-08-03T22:53:40.619Z,19.50
2022-08-03T22:56:09.473Z,19.50
2022-08-03T22:58:37.793Z,19.40
2022-08-03T23:01:09.381Z,19.40
2022-08-03T23:04:00.253Z,19.30
2022-08-03T23:06:34.559Z,19.20
2022-08-03T23:09:05.912Z,19.30
2022-08-03T23:11:38.099Z,19.40
2022-08-03T23:14:13.272Z,19.40
2022-08-03T23:16:44.563Z,19.30
2022-08-03T23:19:17.350Z,19.30
2022-08-03T23:22:02.976Z,19.40
2022-08-03T23:24:36.151Z,19.30
2022-08-03T23:27:07.297Z,19.30
2022-08-03T23:29:37.346Z,19.30
2022-08-03T23:32:08.282Z,19.30
2022-08-03T23:34:58.924Z,19.20
2022-08-03T23:37:27.700Z,19.20
2022-08-03T23:39:58.019Z,19.10
2022-08-03T23:42:27.169Z,19.10
2022-08-03T23:44:59.299Z,19.10
2022-08-03T23:47:47.431Z,19.10
2022-08-03T23:50:16.246Z,19.00
2022-08-03T23:52:56.734Z,19.10
2022-08-03T23:55:41.257Z,19.10
2022-08-03T23:58:19.242Z,19.10
